Time;durP1;ratioP1;P1;durP2;ratioP2;P2;SDS_P1;SDS_P2;PMS_P1;PMS_P2;Temp;Humidity;BMP_temperature;BMP_pressure;BME280_temperature;BME280_humidity;BME280_pressure;Samples;Min_cycle;Max_cycle;Signal;HPM_P1;HPM_P2
2022/07/20 00:00:10;;;;;;;52.88;45.58;;;;;;;29.72;35.40;100902.31;5008148;28;20037;-68
2022/07/20 00:02:36;;;;;;;47.17;42.08;;;;;;;29.62;35.50;100904.94;5007347;28;20037;-68
2022/07/20 00:05:03;;;;;;;42.65;38.13;;;;;;;29.36;35.63;100901.25;5008256;28;20029;-69
2022/07/20 00:07:29;;;;;;;42.25;35.60;;;;;;;29.20;35.40;100911.06;5005575;28;20033;-70
2022/07/20 00:12:38;;;;;;;39.10;34.95;;;;;;;29.09;35.68;100904.00;5005960;28;20507;-70
2022/07/20 00:15:04;;;;;;;38.22;34.28;;;;;;;29.17;35.77;100905.41;5009320;28;20069;-70
2022/07/20 00:17:29;;;;;;;36.22;32.33;;;;;;;29.29;35.59;100892.63;5008151;28;20028;-70
2022/07/20 00:19:54;;;;;;;35.75;32.00;;;;;;;29.43;35.39;100901.84;5007468;28;20037;-70
2022/07/20 00:22:20;;;;;;;34.75;30.95;;;;;;;29.53;35.32;100901.91;5007521;28;20048;-68
2022/07/20 00:24:45;;;;;;;35.25;31.55;;;;;;;29.59;34.79;100894.72;5008210;28;20042;-68
2022/07/20 00:27:11;;;;;;;35.67;31.77;;;;;;;29.64;34.61;100894.75;5007890;28;20038;-68
2022/07/20 00:29:36;;;;;;;40.70;36.25;;;;;;;29.67;35.09;100889.66;5006893;28;20034;-71
2022/07/20 00:32:02;;;;;;;43.15;38.30;;;;;;;29.70;35.08;100891.00;5007275;28;20026;-70
2022/07/20 00:34:27;;;;;;;47.15;41.63;;;;;;;29.71;34.81;100892.63;5008744;28;20025;-68
2022/07/20 00:36:52;;;;;;;57.83;51.53;;;;;;;29.72;34.99;100888.88;5005195;28;20033;-68
2022/07/20 00:39:18;;;;;;;60.83;54.40;;;;;;;29.74;34.96;100883.25;5006389;28;20068;-70
2022/07/20 00:41:43;;;;;;;63.33;56.65;;;;;;;29.75;34.97;100888.34;5005366;28;20046;-69
2022/07/20 00:44:10;;;;;;;68.18;60.97;;;;;;;29.76;34.88;100887.28;5008246;28;20033;-69
2022/07/20 00:46:46;;;;;;;73.18;65.38;;;;;;;29.76;35.22;100886.47;5005228;28;20502;-70
2022/07/20 00:49:13;;;;;;;74.85;66.45;;;;;;;29.77;35.54;100888.91;5008067;28;20729;-70
2022/07/20 00:51:40;;;;;;;75.22;67.05;;;;;;;29.80;35.22;100892.91;5006945;28;20061;-70
2022/07/20 00:54:07;;;;;;;75.22;66.35;;;;;;;29.79;35.08;100897.47;5006361;28;20412;-69
2022/07/20 00:56:34;;;;;;;79.43;67.78;;;;;;;29.80;35.58;100899.09;5007201;28;20033;-70
2022/07/20 00:59:05;;;;;;;86.18;74.22;;;;;;;29.80;35.05;100893.72;5004964;28;20454;-69
2022/07/20 01:01:31;;;;;;;62.40;53.45;;;;;;;29.67;35.33;100897.72;5007119;28;20044;-68
2022/07/20 01:03:57;;;;;;;41.25;35.45;;;;;;;29.57;34.99;100899.53;5005014;28;20149;-68
2022/07/20 01:06:23;;;;;;;31.05;25.20;;;;;;;29.27;35.14;100900.94;5005871;28;20429;-70
2022/07/20 01:08:49;;;;;;;28.25;25.30;;;;;;;29.25;35.49;100905.75;5005240;28;20025;-69
2022/07/20 01:11:15;;;;;;;21.00;18.63;;;;;;;29.17;35.30;100895.50;4998161;28;20739;-69
2022/07/20 01:13:40;;;;;;;17.13;15.13;;;;;;;29.05;35.27;100902.91;5006882;28;20133;-69
2022/07/20 01:16:06;;;;;;;18.20;13.77;;;;;;;28.92;35.36;100901.44;5007719;28;20484;-70
2022/07/20 01:18:31;;;;;;;13.45;12.00;;;;;;;28.81;35.22;100899.75;5001782;28;20042;-68
2022/07/20 01:21:07;;;;;;;15.32;11.60;;;;;;;28.78;35.41;100902.94;5007167;28;20038;-69
2022/07/20 01:23:33;;;;;;;15.95;10.95;;;;;;;28.77;35.50;100900.50;5005442;28;20117;-70
2022/07/20 01:25:59;;;;;;;12.27;10.98;;;;;;;28.74;35.16;100897.25;5006834;28;20045;-69
2022/07/20 01:28:27;;;;;;;11.02;9.85;;;;;;;28.68;35.12;100903.63;5007076;28;20393;-68
2022/07/20 01:30:52;;;;;;;15.55;11.05;;;;;;;28.67;35.63;100907.38;5006996;28;20148;-67
2022/07/20 01:33:19;;;;;;;16.40;10.70;;;;;;;28.79;34.89;100903.72;5004276;28;20409;-69
2022/07/20 01:35:44;;;;;;;13.65;10.13;;;;;;;28.81;35.40;100897.06;5005647;28;20037;-69
2022/07/20 01:38:10;;;;;;;12.85;11.45;;;;;;;28.90;34.93;100898.22;5006372;28;20033;-70
2022/07/20 01:40:36;;;;;;;14.95;10.77;;;;;;;28.89;35.15;100898.47;5007492;28;20096;-69
2022/07/20 01:43:01;;;;;;;13.88;10.48;;;;;;;28.68;35.52;100900.97;5005014;28;20041;-69
2022/07/20 01:45:27;;;;;;;14.95;10.70;;;;;;;28.50;35.96;100906.66;5006086;28;20030;-69
2022/07/20 01:47:52;;;;;;;11.38;10.18;;;;;;;28.53;35.53;100894.63;5006191;28;20316;-69
2022/07/20 01:50:18;;;;;;;10.90;9.30;;;;;;;28.53;35.75;100902.66;5001433;28;20038;-68
2022/07/20 01:52:43;;;;;;;13.93;9.75;;;;;;;28.55;35.58;100904.03;5007077;28;20018;-70
2022/07/20 01:55:09;;;;;;;10.88;8.77;;;;;;;28.64;35.53;100891.81;5003210;28;20034;-71
2022/07/20 01:57:34;;;;;;;9.25;7.95;;;;;;;28.68;35.23;100892.91;5005748;28;20446;-69
2022/07/20 01:59:59;;;;;;;8.38;7.20;;;;;;;28.68;35.43;100887.56;5005004;28;20025;-68
2022/07/20 02:02:25;;;;;;;13.25;6.63;;;;;;;28.46;35.47;100894.00;5005450;28;20034;-68
2022/07/20 02:04:50;;;;;;;9.85;6.40;;;;;;;28.33;35.50;100892.56;5006840;28;20029;-70
2022/07/20 02:07:16;;;;;;;8.73;6.30;;;;;;;28.23;35.98;100895.13;5004796;28;20034;-70
2022/07/20 02:09:41;;;;;;;6.20;5.60;;;;;;;28.01;35.97;100890.53;5004567;28;20466;-68
2022/07/20 02:12:07;;;;;;;6.85;5.32;;;;;;;27.94;36.18;100884.56;5003218;28;20025;-69
2022/07/20 02:14:32;;;;;;;8.60;4.95;;;;;;;27.94;36.34;100884.56;5004912;28;20045;-68
2022/07/20 02:16:58;;;;;;;6.10;4.70;;;;;;;28.01;36.00;100885.19;5004851;28;20158;-69
2022/07/20 02:19:23;;;;;;;7.20;4.80;;;;;;;27.96;35.92;100884.31;5005745;28;20385;-68
2022/07/20 02:21:49;;;;;;;6.93;4.80;;;;;;;28.01;35.92;100882.50;5007421;28;20073;-70
2022/07/20 02:24:14;;;;;;;5.10;4.28;;;;;;;28.16;35.67;100889.13;5004864;28;20034;-69
2022/07/20 02:26:39;;;;;;;7.80;4.85;;;;;;;28.06;35.87;100879.91;5005959;28;20386;-69
2022/07/20 02:29:05;;;;;;;6.07;4.00;;;;;;;28.02;36.13;100878.78;5000931;28;20446;-70
2022/07/20 02:31:30;;;;;;;6.43;4.00;;;;;;;28.07;35.93;100878.84;4999520;28;20029;-69
2022/07/20 02:33:56;;;;;;;5.50;4.40;;;;;;;28.04;36.25;100884.69;5006577;28;20422;-70
2022/07/20 02:36:21;;;;;;;4.47;3.30;;;;;;;27.95;36.14;100888.06;5009206;28;20037;-70
2022/07/20 02:38:47;;;;;;;6.97;3.40;;;;;;;27.97;36.31;100892.09;5008098;28;20050;-69
2022/07/20 02:41:12;;;;;;;5.55;3.13;;;;;;;27.89;36.09;100881.00;5006582;28;20787;-68
2022/07/20 02:43:38;;;;;;;7.93;3.33;;;;;;;27.77;36.35;100881.16;5006955;28;20467;-69
2022/07/20 02:46:05;;;;;;;4.85;3.03;;;;;;;27.64;36.55;100876.16;5005089;28;20049;-69
2022/07/20 02:48:31;;;;;;;5.75;3.10;;;;;;;27.53;36.93;100885.06;5005855;28;20062;-70
2022/07/20 02:50:56;;;;;;;6.28;2.33;;;;;;;27.52;36.85;100883.44;5004812;28;20025;-71
2022/07/20 02:53:22;;;;;;;5.35;2.28;;;;;;;27.41;36.98;100877.16;4998607;28;20061;-70
2022/07/20 02:55:48;;;;;;;5.10;2.17;;;;;;;27.37;37.15;100876.84;5001373;28;20579;-70
2022/07/20 02:58:13;;;;;;;2.85;2.55;;;;;;;27.37;37.13;100871.50;5004819;28;20065;-69
2022/07/20 03:00:40;;;;;;;4.78;2.80;;;;;;;27.51;37.25;100876.47;5003822;28;20061;-68
2022/07/20 03:03:06;;;;;;;3.33;2.60;;;;;;;27.69;36.65;100878.91;5005118;28;20440;-69
2022/07/20 03:05:33;;;;;;;4.93;2.80;;;;;;;27.77;36.75;100881.16;5005686;28;20312;-70
2022/07/20 03:07:58;;;;;;;4.60;2.38;;;;;;;27.78;36.32;100880.09;5004893;28;20057;-68
2022/07/20 03:10:23;;;;;;;5.43;2.50;;;;;;;27.74;36.35;100882.47;5001416;28;20053;-69
2022/07/20 03:12:49;;;;;;;8.68;2.55;;;;;;;27.62;36.62;100884.44;5000533;28;20069;-69
2022/07/20 03:15:15;;;;;;;4.63;2.60;;;;;;;27.47;36.96;100886.03;4997052;28;20109;-69
2022/07/20 03:17:42;;;;;;;3.05;1.75;;;;;;;27.33;37.47;100881.06;5005763;28;20029;-71
2022/07/20 03:20:09;;;;;;;3.28;1.45;;;;;;;27.26;37.46;100884.94;5004323;28;20053;-69
2022/07/20 03:22:35;;;;;;;4.85;1.25;;;;;;;27.16;37.39;100880.25;5005424;28;20088;-70
2022/07/20 03:25:00;;;;;;;3.05;1.52;;;;;;;27.20;37.50;100889.41;5004620;28;20025;-70
2022/07/20 03:27:26;;;;;;;3.78;0.90;;;;;;;27.19;37.36;100886.97;5002356;28;20383;-70
2022/07/20 03:29:51;;;;;;;2.70;1.33;;;;;;;27.14;37.69;100887.72;5003458;28;20036;-70
2022/07/20 03:32:16;;;;;;;3.17;1.83;;;;;;;27.14;37.62;100887.72;5003803;28;20033;-70
2022/07/20 03:34:42;;;;;;;5.00;1.67;;;;;;;27.15;37.83;100893.88;5004539;28;20387;-71
2022/07/20 03:37:07;;;;;;;2.78;1.15;;;;;;;27.07;37.67;100887.88;5003630;28;20026;-69
2022/07/20 03:39:33;;;;;;;5.68;1.63;;;;;;;27.02;37.82;100890.47;5004817;28;20034;-70
2022/07/20 03:41:58;;;;;;;4.55;1.77;;;;;;;27.01;37.82;100890.69;5002074;28;20038;-68
2022/07/20 03:44:24;;;;;;;5.68;1.52;;;;;;;26.97;37.74;100881.53;5004184;28;20017;-70
2022/07/20 03:46:49;;;;;;;4.25;1.85;;;;;;;27.03;37.85;100891.28;4999697;28;20371;-70
2022/07/20 03:49:14;;;;;;;4.50;1.45;;;;;;;27.18;37.51;100891.53;5000806;28;20029;-71
2022/07/20 03:51:40;;;;;;;2.22;1.05;;;;;;;27.25;37.49;100896.72;5003958;28;20371;-69
2022/07/20 03:54:07;;;;;;;5.22;1.23;;;;;;;27.14;37.53;100892.25;5005326;28;20034;-68
2022/07/20 03:56:33;;;;;;;6.72;1.10;;;;;;;27.05;37.79;100899.84;5002700;28;20038;-69
2022/07/20 03:58:58;;;;;;;2.08;1.30;;;;;;;26.94;38.05;100898.84;5004403;28;20033;-70
2022/07/20 04:01:24;;;;;;;2.75;0.80;;;;;;;26.85;37.73;100903.00;5001897;28;20042;-70
2022/07/20 04:03:49;;;;;;;4.78;0.98;;;;;;;26.84;37.85;100903.22;5002973;28;20185;-69
2022/07/20 04:06:14;;;;;;;1.95;0.77;;;;;;;26.77;37.97;100904.19;5004331;28;20026;-69
2022/07/20 04:08:40;;;;;;;2.53;1.15;;;;;;;26.78;37.91;100905.81;5001896;28;20445;-69
2022/07/20 04:11:05;;;;;;;5.18;1.20;;;;;;;26.73;38.20;100905.72;5002331;28;20056;-70
2022/07/20 04:13:31;;;;;;;4.05;0.80;;;;;;;26.77;38.30;100904.19;5004848;28;20543;-68
2022/07/20 04:15:56;;;;;;;3.78;1.55;;;;;;;26.91;37.96;100898.53;4998589;28;20029;-69
2022/07/20 04:18:21;;;;;;;2.97;0.93;;;;;;;27.01;37.59;100898.72;5002952;28;20038;-69
2022/07/20 04:20:47;;;;;;;3.40;1.08;;;;;;;27.08;37.78;100910.06;5005384;28;20131;-70
2022/07/20 04:23:12;;;;;;;9.32;1.33;;;;;;;27.15;37.82;100908.06;5002760;28;20478;-69
2022/07/20 04:25:38;;;;;;;1.20;0.70;;;;;;;27.18;37.51;100915.59;4994322;28;20480;-71
2022/07/20 04:28:03;;;;;;;1.38;0.95;;;;;;;27.29;37.27;100909.34;4997574;28;20026;-68
2022/07/20 04:30:29;;;;;;;5.05;1.20;;;;;;;27.33;37.45;100913.16;5004334;28;20084;-70
2022/07/20 04:32:54;;;;;;;3.15;1.13;;;;;;;27.34;37.71;100924.66;4998563;28;20026;-69
2022/07/20 04:35:20;;;;;;;2.13;0.80;;;;;;;27.44;37.34;100928.28;5003791;28;20030;-70
2022/07/20 04:37:45;;;;;;;2.67;0.88;;;;;;;27.56;36.84;100927.38;4999974;28;20037;-70
2022/07/20 04:40:11;;;;;;;5.93;1.73;;;;;;;27.59;37.41;100926.94;4994391;28;20053;-71
2022/07/20 04:42:37;;;;;;;3.55;1.25;;;;;;;27.51;37.42;100930.81;5000540;28;20058;-68
2022/07/20 04:45:03;;;;;;;2.28;1.15;;;;;;;27.58;37.18;100931.44;5005617;28;20026;-69
2022/07/20 04:47:28;;;;;;;1.63;1.02;;;;;;;27.67;37.26;100931.88;5006050;28;20041;-71
2022/07/20 04:49:54;;;;;;;2.88;1.00;;;;;;;27.70;37.33;100931.38;5007562;28;20402;-69
2022/07/20 04:52:19;;;;;;;2.42;0.80;;;;;;;27.75;37.05;100928.78;5008063;28;20175;-68
2022/07/20 04:54:44;;;;;;;6.95;1.10;;;;;;;27.83;36.68;100933.72;5006745;28;20075;-70
2022/07/20 04:57:10;;;;;;;5.13;1.58;;;;;;;27.86;36.92;100933.22;5006712;28;20506;-68
2022/07/20 04:59:37;;;;;;;7.28;1.60;;;;;;;27.81;37.21;100930.47;5005461;28;20037;-69
2022/07/20 05:02:04;;;;;;;5.15;1.08;;;;;;;27.85;36.93;100925.44;5000019;28;20030;-71
2022/07/20 05:04:29;;;;;;;6.97;0.85;;;;;;;27.78;36.97;100920.25;5008871;28;20029;-69
2022/07/20 05:06:54;;;;;;;3.03;0.95;;;;;;;27.69;36.74;100927.91;5006917;28;20092;-70
2022/07/20 05:09:20;;;;;;;6.55;0.95;;;;;;;27.68;37.19;100931.63;5006389;28;20029;-70
2022/07/20 05:11:45;;;;;;;4.72;0.93;;;;;;;27.78;37.13;100928.28;4997289;28;20045;-68
2022/07/20 05:14:11;;;;;;;4.60;0.90;;;;;;;27.89;36.62;100932.69;5004715;28;20026;-69
2022/07/20 05:16:37;;;;;;;7.53;1.73;;;;;;;27.93;36.95;100931.16;5007472;28;20137;-68
2022/07/20 05:19:03;;;;;;;4.72;1.23;;;;;;;27.96;36.54;100925.28;5007437;28;20509;-70
2022/07/20 05:21:28;;;;;;;3.28;0.73;;;;;;;27.77;36.70;100928.53;5005327;28;20048;-69
2022/07/20 05:23:54;;;;;;;2.13;0.73;;;;;;;27.65;36.84;100921.41;5000903;28;20026;-71
2022/07/20 05:26:19;;;;;;;4.80;0.82;;;;;;;27.68;37.35;100925.47;5004830;28;20474;-70
2022/07/20 05:28:45;;;;;;;8.30;1.02;;;;;;;27.64;37.35;100933.16;5008409;28;20088;-68
2022/07/20 05:31:13;;;;;;;6.18;1.10;;;;;;;27.69;37.15;100927.09;5006592;28;20048;-70
2022/07/20 05:33:40;;;;;;;7.22;1.08;;;;;;;27.75;37.13;100931.44;5005389;28;20038;-68
2022/07/20 05:36:06;;;;;;;5.53;1.08;;;;;;;27.74;37.17;100929.84;5002539;28;20034;-70
2022/07/20 05:38:31;;;;;;;4.90;0.70;;;;;;;27.67;37.02;100935.34;5002673;28;20045;-68
2022/07/20 05:40:57;;;;;;;2.10;0.88;;;;;;;27.61;37.16;100930.19;4988731;28;20084;-70
2022/07/20 05:43:23;;;;;;;3.58;0.70;;;;;;;27.57;37.28;100939.72;5007295;28;20486;-68
2022/07/20 05:45:48;;;;;;;4.90;1.40;;;;;;;27.51;36.79;100935.34;5006402;28;20034;-70
2022/07/20 05:48:14;;;;;;;4.85;0.73;;;;;;;27.44;37.10;100936.31;5005978;28;20492;-71
2022/07/20 05:50:42;;;;;;;7.38;0.88;;;;;;;27.35;37.41;100940.47;5002563;28;20232;-70
2022/07/20 05:53:08;;;;;;;5.20;0.90;;;;;;;27.40;37.49;100939.75;4998153;28;20032;-69
2022/07/20 05:55:34;;;;;;;4.00;0.70;;;;;;;27.50;37.29;100945.22;5002053;28;20072;-71
2022/07/20 05:58:01;;;;;;;5.07;0.77;;;;;;;27.58;36.86;100942.16;5006623;28;20033;-69
2022/07/20 06:00:26;;;;;;;6.90;1.65;;;;;;;27.61;36.95;100935.53;5005673;28;20091;-70
2022/07/20 06:02:52;;;;;;;5.97;1.30;;;;;;;27.54;37.07;100938.34;5003526;28;20041;-69
2022/07/20 06:05:18;;;;;;;7.57;0.88;;;;;;;27.52;37.06;100936.97;5002945;28;20033;-68
2022/07/20 06:07:43;;;;;;;6.93;1.25;;;;;;;27.59;37.00;100946.47;5003098;28;20325;-68
2022/07/20 06:10:10;;;;;;;5.72;0.98;;;;;;;27.54;37.45;100943.69;5003716;28;20470;-69
2022/07/20 06:12:35;;;;;;;12.48;1.73;;;;;;;27.54;37.53;100937.53;5004438;28;20036;-69
2022/07/20 06:15:01;;;;;;;1.27;0.52;;;;;;;27.53;37.41;100939.41;5005354;28;20034;-69
2022/07/20 06:17:37;;;;;;;5.70;1.40;;;;;;;27.56;37.18;100938.09;5005581;28;20048;-68
2022/07/20 06:20:11;;;;;;;4.88;0.95;;;;;;;27.63;37.18;100933.41;4999013;28;20037;-70
2022/07/20 06:22:38;;;;;;;8.35;1.30;;;;;;;27.75;37.57;100926.91;5004820;28;20117;-68
2022/07/20 06:25:05;;;;;;;7.50;1.17;;;;;;;27.88;38.12;100923.06;5004183;28;20320;-71
2022/07/20 06:27:30;;;;;;;6.55;1.10;;;;;;;27.96;37.57;100922.63;5002101;28;20029;-71
2022/07/20 06:29:57;;;;;;;6.63;1.10;;;;;;;28.02;37.99;100928.84;4996852;28;20025;-71
2022/07/20 06:32:22;;;;;;;6.30;1.02;;;;;;;28.04;37.63;100919.50;5004320;28;20030;-70
2022/07/20 06:34:48;;;;;;;5.18;1.20;;;;;;;28.08;37.50;100927.84;5001079;28;20033;-69
2022/07/20 06:37:13;;;;;;;8.30;0.90;;;;;;;28.08;37.52;100925.19;4982193;28;20026;-69
2022/07/20 06:39:39;;;;;;;2.85;0.90;;;;;;;28.11;36.95;100919.31;5004618;28;20033;-70
2022/07/20 06:42:04;;;;;;;3.55;0.73;;;;;;;28.15;37.13;100919.63;5003471;28;20045;-71
2022/07/20 06:44:30;;;;;;;3.50;0.45;;;;;;;28.18;36.79;100913.78;5003187;28;20030;-69
2022/07/20 06:46:56;;;;;;;3.67;0.75;;;;;;;28.22;36.94;100917.63;5005244;28;20036;-70
2022/07/20 06:49:21;;;;;;;2.78;0.90;;;;;;;28.23;36.79;100914.69;5005887;28;20026;-69
2022/07/20 06:51:46;;;;;;;3.72;0.47;;;;;;;28.25;36.94;100915.25;5004021;28;20034;-70
2022/07/20 06:54:12;;;;;;;2.42;0.50;;;;;;;28.26;36.58;100918.75;5003723;28;20041;-70
2022/07/20 06:56:37;;;;;;;2.30;0.50;;;;;;;28.25;36.38;100920.59;5003792;28;20054;-68
2022/07/20 06:59:03;;;;;;;2.40;0.60;;;;;;;28.25;35.90;100914.44;5005620;28;20017;-68
2022/07/20 07:01:28;;;;;;;5.22;0.93;;;;;;;28.26;36.35;100913.38;5002870;28;20041;-70
2022/07/20 07:03:54;;;;;;;3.35;0.80;;;;;;;28.27;35.96;100915.00;5005715;28;20084;-71
2022/07/20 07:06:19;;;;;;;5.60;1.40;;;;;;;28.30;35.91;100922.53;5004763;28;20494;-68
2022/07/20 07:08:45;;;;;;;7.18;1.00;;;;;;;28.31;35.75;100916.94;5004305;28;20032;-68
2022/07/20 07:11:10;;;;;;;5.75;1.20;;;;;;;28.32;36.08;100918.56;5001223;28;20018;-69
2022/07/20 07:13:35;;;;;;;1.67;0.70;;;;;;;28.34;36.24;100923.66;5002887;28;20034;-68
2022/07/20 07:16:01;;;;;;;1.52;0.55;;;;;;;28.37;36.23;100920.44;5003779;28;20181;-71
2022/07/20 07:18:26;;;;;;;7.03;1.08;;;;;;;28.38;36.06;100920.19;5006186;28;20433;-70
2022/07/20 07:20:52;;;;;;;8.38;0.73;;;;;;;28.41;36.34;100913.53;5005925;28;20065;-71
2022/07/20 07:23:17;;;;;;;5.70;0.70;;;;;;;28.44;36.39;100918.38;5004443;28;20117;-69
2022/07/20 07:25:43;;;;;;;4.75;0.80;;;;;;;28.46;36.08;100918.94;5005028;28;20030;-68
2022/07/20 07:28:08;;;;;;;5.38;0.82;;;;;;;28.47;35.98;100909.03;5005642;28;20026;-70
2022/07/20 07:30:33;;;;;;;5.70;0.82;;;;;;;28.48;36.03;100910.66;5002821;28;20148;-69
2022/07/20 07:32:59;;;;;;;4.72;0.70;;;;;;;28.47;36.05;100901.81;5003811;28;20686;-68
2022/07/20 07:35:24;;;;;;;3.90;0.85;;;;;;;28.51;35.91;100902.91;5004130;28;20484;-69
2022/07/20 07:37:50;;;;;;;12.82;1.75;;;;;;;28.56;36.26;100907.53;5004439;28;20482;-68
2022/07/20 07:40:15;;;;;;;6.25;0.90;;;;;;;28.57;36.31;100901.91;5006107;28;20048;-71
2022/07/20 07:42:41;;;;;;;2.40;0.60;;;;;;;28.60;36.03;100898.72;5005677;28;20143;-67
2022/07/20 07:45:07;;;;;;;1.75;0.50;;;;;;;28.64;35.90;100901.72;5002045;28;20030;-68
2022/07/20 07:47:34;;;;;;;4.78;0.80;;;;;;;28.66;35.12;100888.88;4997554;28;20033;-68
2022/07/20 07:49:59;;;;;;;1.38;0.77;;;;;;;28.67;35.26;100891.28;5001827;28;20390;-71
2022/07/20 07:52:25;;;;;;;1.35;0.50;;;;;;;28.68;34.91;100892.09;5002465;28;20033;-69
2022/07/20 07:54:50;;;;;;;4.00;0.70;;;;;;;28.71;34.65;100881.69;5004942;28;20037;-69
2022/07/20 07:57:16;;;;;;;3.67;0.60;;;;;;;28.76;34.23;100877.44;5006941;28;20037;-70
2022/07/20 07:59:42;;;;;;;1.02;0.40;;;;;;;28.78;33.53;100876.13;5007808;28;20026;-69
2022/07/20 08:02:07;;;;;;;3.40;0.75;;;;;;;28.80;33.96;100876.66;5007917;28;20072;-69
2022/07/20 08:04:33;;;;;;;1.48;0.55;;;;;;;28.84;33.97;100874.28;5006645;28;20486;-69
2022/07/20 08:06:58;;;;;;;5.40;0.65;;;;;;;28.85;33.76;100878.59;5005160;28;20437;-69
2022/07/20 08:09:24;;;;;;;2.45;0.70;;;;;;;28.86;33.11;100866.78;5005967;28;20026;-69
2022/07/20 08:11:49;;;;;;;4.68;0.60;;;;;;;28.87;33.49;100866.53;5004818;28;20083;-69
2022/07/20 08:14:15;;;;;;;2.63;0.75;;;;;;;28.90;33.01;100867.91;5004942;28;20122;-69
2022/07/20 08:16:40;;;;;;;4.30;0.60;;;;;;;28.95;32.71;100870.63;5003833;28;20044;-69
2022/07/20 08:19:06;;;;;;;2.63;0.90;;;;;;;28.97;32.53;100868.50;5007457;28;20037;-69
2022/07/20 08:21:31;;;;;;;3.75;0.70;;;;;;;29.00;32.56;100860.75;5007439;28;20037;-69
2022/07/20 08:23:56;;;;;;;1.73;0.50;;;;;;;29.01;32.38;100866.94;5009720;28;20425;-69
2022/07/20 08:26:22;;;;;;;2.08;0.75;;;;;;;29.01;32.58;100861.56;5008692;28;20486;-69
2022/07/20 08:28:47;;;;;;;2.83;0.30;;;;;;;29.05;32.12;100859.97;5008880;28;20026;-69
2022/07/20 08:31:13;;;;;;;1.67;0.50;;;;;;;29.07;31.53;100863.22;5005611;28;20097;-70
2022/07/20 08:33:38;;;;;;;1.20;0.50;;;;;;;29.06;31.82;100856.25;5007948;28;20073;-69
2022/07/20 08:36:04;;;;;;;5.00;0.60;;;;;;;29.08;32.26;100862.16;5008526;28;20029;-69
2022/07/20 08:38:30;;;;;;;1.02;0.43;;;;;;;29.11;31.54;100856.28;5008913;28;20490;-69
2022/07/20 08:40:56;;;;;;;2.78;0.55;;;;;;;29.10;31.93;100854.66;5008080;28;20033;-69
2022/07/20 08:43:23;;;;;;;2.15;0.68;;;;;;;29.11;32.29;100860.81;5008507;28;20037;-68
2022/07/20 08:45:50;;;;;;;3.75;0.38;;;;;;;29.11;31.84;100852.78;5009314;28;20108;-68
2022/07/20 08:48:20;;;;;;;1.38;0.50;;;;;;;29.13;32.12;100858.69;5008249;28;20029;-69
2022/07/20 08:50:47;;;;;;;2.75;0.47;;;;;;;29.18;31.62;100856.06;5008407;28;20026;-69
2022/07/20 08:53:13;;;;;;;1.88;0.50;;;;;;;29.18;31.68;100856.88;5007689;28;20128;-69
2022/07/20 08:55:39;;;;;;;3.17;0.80;;;;;;;29.21;31.77;100858.22;5008072;28;20501;-69
2022/07/20 08:58:04;;;;;;;3.78;0.50;;;;;;;29.22;31.21;100855.28;5007895;28;20040;-68
2022/07/20 09:00:30;;;;;;;2.70;0.47;;;;;;;29.22;31.68;100859.84;5008536;28;20397;-70
2022/07/20 09:03:01;;;;;;;3.97;0.52;;;;;;;29.22;31.20;100857.16;5008140;28;20030;-69
2022/07/20 09:05:28;;;;;;;2.30;0.57;;;;;;;29.24;31.53;100855.84;5007368;28;20456;-71
2022/07/20 09:07:56;;;;;;;3.97;0.50;;;;;;;29.25;31.00;100853.97;5009049;28;20734;-69
2022/07/20 09:10:26;;;;;;;2.60;0.60;;;;;;;29.26;31.36;100839.47;5008455;28;20534;-69
2022/07/20 09:12:55;;;;;;;2.97;0.50;;;;;;;29.31;30.98;100836.78;5007284;28;20018;-71
2022/07/20 09:15:32;;;;;;;2.60;0.57;;;;;;;29.37;29.70;100838.44;5007116;28;20061;-68
2022/07/20 09:18:20;;;;;;;2.05;0.30;;;;;;;29.37;29.94;100835.75;5007559;28;20034;-68
2022/07/20 09:20:47;;;;;;;1.23;0.30;;;;;;;29.40;30.22;100835.25;5008594;28;20065;-69
2022/07/20 09:23:18;;;;;;;2.38;0.40;;;;;;;29.40;29.88;100830.69;5007868;28;20437;-69
2022/07/20 09:26:04;;;;;;;2.88;0.20;;;;;;;29.44;29.61;100830.19;5007204;28;20041;-68
2022/07/20 09:28:49;;;;;;;3.55;0.30;;;;;;;29.48;29.22;100839.34;5007313;28;20099;-70
2022/07/20 09:31:19;;;;;;;1.50;0.38;;;;;;;29.49;29.29;100832.91;5005726;28;20034;-69
2022/07/20 09:33:58;;;;;;;1.77;0.40;;;;;;;29.50;29.30;100834.53;5009516;28;20069;-69
2022/07/20 09:36:28;;;;;;;0.65;0.30;;;;;;;29.50;28.72;100829.97;5007236;28;20068;-70
2022/07/20 09:39:04;;;;;;;3.58;0.30;;;;;;;29.57;28.39;100829.72;5007460;28;20041;-69
2022/07/20 09:41:31;;;;;;;1.63;0.40;;;;;;;29.61;27.53;100825.47;5007228;28;20519;-69
2022/07/20 09:43:59;;;;;;;1.80;0.20;;;;;;;29.63;27.94;100826.81;5006163;28;20451;-70
2022/07/20 09:46:28;;;;;;;1.98;0.20;;;;;;;29.65;27.86;100821.97;5006264;28;20112;-69
2022/07/20 09:48:58;;;;;;;1.77;0.20;;;;;;;29.65;27.44;100816.63;5000470;28;20442;-69
2022/07/20 09:51:24;;;;;;;1.48;0.20;;;;;;;29.67;27.93;100819.84;5007322;28;20034;-69
2022/07/20 09:53:52;;;;;;;4.25;0.20;;;;;;;29.71;27.63;100822.81;5006388;28;20038;-69
2022/07/20 09:56:19;;;;;;;0.98;0.20;;;;;;;29.71;27.61;100815.56;5006214;28;20026;-68
2022/07/20 09:58:47;;;;;;;2.50;0.20;;;;;;;29.73;27.34;100826.06;5007108;28;20029;-69
2022/07/20 10:01:16;;;;;;;1.15;0.30;;;;;;;29.74;27.22;100818.81;5006964;28;20584;-68
2022/07/20 10:03:44;;;;;;;1.95;0.30;;;;;;;29.75;27.65;100815.03;5006997;28;20061;-68
2022/07/20 10:06:09;;;;;;;0.65;0.20;;;;;;;29.77;27.28;100821.78;5006950;28;20057;-68
2022/07/20 10:08:35;;;;;;;1.55;0.20;;;;;;;29.83;27.24;100815.31;5005938;28;20033;-69
2022/07/20 10:11:01;;;;;;;2.80;0.22;;;;;;;29.81;27.16;100812.09;5006864;28;20034;-69
2022/07/20 10:13:27;;;;;;;2.20;0.30;;;;;;;29.76;27.25;100812.09;5007168;28;20105;-69
2022/07/20 10:15:58;;;;;;;3.72;0.30;;;;;;;29.81;27.38;100806.72;5007550;28;20030;-69
2022/07/20 10:18:25;;;;;;;0.85;0.47;;;;;;;29.86;27.16;100806.72;5007038;28;20082;-69
2022/07/20 10:20:50;;;;;;;1.88;0.30;;;;;;;29.90;26.80;100798.97;5005413;28;20036;-67
2022/07/20 10:23:15;;;;;;;1.08;0.28;;;;;;;29.90;26.81;100797.09;5005346;28;20022;-69
2022/07/20 10:25:42;;;;;;;2.53;0.30;;;;;;;29.92;27.32;100805.69;5005441;28;20633;-69
2022/07/20 10:28:27;;;;;;;2.58;0.30;;;;;;;29.92;26.82;100805.69;5006722;28;20042;-69
2022/07/20 10:30:54;;;;;;;0.67;0.20;;;;;;;29.91;26.99;100796.00;5006103;28;20033;-68
2022/07/20 10:33:21;;;;;;;3.05;0.30;;;;;;;29.95;26.79;100796.28;5005108;28;20034;-68
2022/07/20 10:35:49;;;;;;;2.38;0.30;;;;;;;30.01;26.53;100792.56;4988379;28;20061;-69
2022/07/20 10:38:19;;;;;;;3.20;0.35;;;;;;;30.01;26.17;100790.69;5007185;28;20029;-68
2022/07/20 10:44:26;;;;;;;1.02;0.20;;;;;;;29.95;26.54;100782.84;5001385;28;20052;-69
2022/07/20 10:46:51;;;;;;;0.85;0.20;;;;;;;30.02;26.84;100789.63;5004646;28;20041;-68
2022/07/20 10:49:17;;;;;;;1.58;0.20;;;;;;;30.07;26.45;100791.53;5006038;28;20026;-69
2022/07/20 10:51:43;;;;;;;0.82;0.10;;;;;;;30.11;26.53;100784.53;5005321;28;20030;-69
2022/07/20 10:54:30;;;;;;;2.75;0.30;;;;;;;30.14;26.70;100793.94;5002401;28;20643;-69
2022/07/20 10:56:59;;;;;;;2.95;0.20;;;;;;;30.17;26.75;100796.09;5005628;28;20654;-70
2022/07/20 10:59:25;;;;;;;1.60;0.38;;;;;;;30.14;26.34;100785.88;5003805;28;20080;-69
2022/07/20 11:01:51;;;;;;;1.17;0.20;;;;;;;30.10;26.71;100785.63;5003836;28;20034;-68
2022/07/20 11:04:17;;;;;;;5.57;0.30;;;;;;;30.16;26.42;100773.00;5005088;28;20034;-67
2022/07/20 11:06:42;;;;;;;0.75;0.20;;;;;;;30.20;26.22;100768.72;5004524;28;20033;-67
2022/07/20 11:09:08;;;;;;;1.10;0.30;;;;;;;30.16;26.48;100773.81;5005992;28;20037;-67
2022/07/20 11:11:38;;;;;;;0.82;0.20;;;;;;;30.18;26.94;100771.66;5000055;28;20410;-71
2022/07/20 11:14:05;;;;;;;1.25;0.20;;;;;;;30.18;26.55;100766.28;4998954;28;20441;-68
2022/07/20 11:16:34;;;;;;;3.70;0.20;;;;;;;30.19;26.98;100764.41;5001315;28;20030;-67
2022/07/20 11:19:02;;;;;;;2.58;0.20;;;;;;;30.24;26.05;100751.78;5001085;28;20029;-69
2022/07/20 11:21:38;;;;;;;2.45;0.20;;;;;;;30.41;25.84;100761.44;5000478;28;20038;-68
2022/07/20 11:24:19;;;;;;;2.10;0.25;;;;;;;30.50;25.40;100755.25;5003164;28;20101;-68